CA-0643 weather

CLOSED Bowden Airport
Innisfail, Alberta, Canada

Public forecast

Using degrees Celsius for public forecast. Weather courtesy of forecast.io.

METAR (pilot weather report)

Closest report is Red Deer Regional Airport, 12.7 nm (23.5 km) NNE. Retrieved 2019/07/15 19:35 UTC (0 seconds ago):

CYQF 151935Z 32006KT 230V360 15SM -SHRA SCT030TCU BKN100 BKN230 21/12 A3000 RMK TCU3AC2CI2 SLP167 DENSITY ALT 4300FT

TAF (pilot weather forecast)

Closest forecast is Red Deer Regional Airport, 12.7 nm (23.5 km) NNE. Retrieved 2019/07/15 18:45 UTC (38 minutes ago):

TAF CYQF 151741Z 1518/1606 33006KT P6SM FEW030 FEW100 SCT260 FM152100 30010KT P6SM FEW050 SCT100 SCT180 TEMPO 1521/1603 P6SM VCSH SCT050 BKN100 BECMG 1601/1603 24008KT FM160300 24008KT P6SM SCT050 BKN080 TEMPO 1603/1606 P6SM -SHRA VCSH BKN050CB OVC080 RMK NXT FCST BY 160000Z